sensor_id;sensor_type;location;lat;lon;timestamp;temperature;humidity
38582;DHT22;24349;53.720;10.014;2022-11-23T00:01:28;2.30;99.90
38582;DHT22;24349;53.720;10.014;2022-11-23T00:03:56;2.30;99.90
38582;DHT22;24349;53.720;10.014;2022-11-23T00:06:23;2.40;99.90
38582;DHT22;24349;53.720;10.014;2022-11-23T00:08:49;2.40;99.90
38582;DHT22;24349;53.720;10.014;2022-11-23T00:11:15;2.40;99.90
38582;DHT22;24349;53.720;10.014;2022-11-23T00:13:41;2.40;99.90
38582;DHT22;24349;53.720;10.014;2022-11-23T00:16:08;2.40;99.90
38582;DHT22;24349;53.720;10.014;2022-11-23T00:18:34;2.40;99.90
38582;DHT22;24349;53.720;10.014;2022-11-23T00:21:05;2.40;99.90
38582;DHT22;24349;53.720;10.014;2022-11-23T00:57:49;2.50;99.90
38582;DHT22;24349;53.720;10.014;2022-11-23T01:52:03;2.90;99.90
38582;DHT22;24349;53.720;10.014;2022-11-23T02:18:43;3.10;99.90
38582;DHT22;24349;53.720;10.014;2022-11-23T02:24:02;3.00;99.90
38582;DHT22;24349;53.720;10.014;2022-11-23T02:26:33;3.10;99.90
38582;DHT22;24349;53.720;10.014;2022-11-23T02:29:35;3.10;99.90
38582;DHT22;24349;53.720;10.014;2022-11-23T02:32:01;3.10;99.90
38582;DHT22;24349;53.720;10.014;2022-11-23T02:34:27;3.10;99.90
38582;DHT22;24349;53.720;10.014;2022-11-23T02:36:55;3.10;99.90
38582;DHT22;24349;53.720;10.014;2022-11-23T02:39:37;3.20;99.90
38582;DHT22;24349;53.720;10.014;2022-11-23T02:42:04;3.20;99.90
38582;DHT22;24349;53.720;10.014;2022-11-23T02:47:05;3.20;99.90
38582;DHT22;24349;53.720;10.014;2022-11-23T02:49:32;3.20;99.90
38582;DHT22;24349;53.720;10.014;2022-11-23T02:51:57;3.20;99.90
38582;DHT22;24349;53.720;10.014;2022-11-23T02:54:23;3.20;99.90
38582;DHT22;24349;53.720;10.014;2022-11-23T02:56:49;3.20;99.90
38582;DHT22;24349;53.720;10.014;2022-11-23T02:59:14;3.30;99.90
38582;DHT22;24349;53.720;10.014;2022-11-23T03:01:40;3.30;99.90
38582;DHT22;24349;53.720;10.014;2022-11-23T03:04:06;3.30;99.90
38582;DHT22;24349;53.720;10.014;2022-11-23T03:06:32;3.30;99.90
38582;DHT22;24349;53.720;10.014;2022-11-23T03:08:58;3.30;99.90
38582;DHT22;24349;53.720;10.014;2022-11-23T03:11:23;3.20;99.90
38582;DHT22;24349;53.720;10.014;2022-11-23T03:13:49;3.20;99.90
38582;DHT22;24349;53.720;10.014;2022-11-23T03:16:15;3.30;99.90
38582;DHT22;24349;53.720;10.014;2022-11-23T03:18:41;3.30;99.90
38582;DHT22;24349;53.720;10.014;2022-11-23T03:21:07;3.30;99.90
38582;DHT22;24349;53.720;10.014;2022-11-23T03:23:34;3.30;99.90
38582;DHT22;24349;53.720;10.014;2022-11-23T03:25:59;3.30;99.90
38582;DHT22;24349;53.720;10.014;2022-11-23T03:28:25;3.30;99.90
38582;DHT22;24349;53.720;10.014;2022-11-23T03:30:51;3.40;99.90
38582;DHT22;24349;53.720;10.014;2022-11-23T03:33:17;3.40;99.90
38582;DHT22;24349;53.720;10.014;2022-11-23T03:35:43;3.40;99.90
38582;DHT22;24349;53.720;10.014;2022-11-23T03:38:09;3.40;99.90
38582;DHT22;24349;53.720;10.014;2022-11-23T03:40:34;3.60;99.90
38582;DHT22;24349;53.720;10.014;2022-11-23T03:43:00;3.60;99.90
38582;DHT22;24349;53.720;10.014;2022-11-23T03:45:26;3.50;99.90
38582;DHT22;24349;53.720;10.014;2022-11-23T03:47:51;3.50;99.90
38582;DHT22;24349;53.720;10.014;2022-11-23T03:50:17;3.50;99.90
38582;DHT22;24349;53.720;10.014;2022-11-23T03:52:43;3.50;99.90
38582;DHT22;24349;53.720;10.014;2022-11-23T03:55:08;3.50;99.90
38582;DHT22;24349;53.720;10.014;2022-11-23T03:57:34;3.50;99.90
38582;DHT22;24349;53.720;10.014;2022-11-23T04:00:00;3.60;99.90
38582;DHT22;24349;53.720;10.014;2022-11-23T04:02:26;3.60;99.90
38582;DHT22;24349;53.720;10.014;2022-11-23T04:04:51;3.60;99.90
38582;DHT22;24349;53.720;10.014;2022-11-23T04:07:17;3.60;99.90
38582;DHT22;24349;53.720;10.014;2022-11-23T04:09:43;3.60;99.90
38582;DHT22;24349;53.720;10.014;2022-11-23T04:12:09;3.70;99.90
38582;DHT22;24349;53.720;10.014;2022-11-23T04:14:35;3.70;99.90
38582;DHT22;24349;53.720;10.014;2022-11-23T04:17:01;3.70;99.90
38582;DHT22;24349;53.720;10.014;2022-11-23T04:19:27;3.70;99.90
38582;DHT22;24349;53.720;10.014;2022-11-23T04:21:52;3.70;99.90
38582;DHT22;24349;53.720;10.014;2022-11-23T04:24:18;3.70;99.90
38582;DHT22;24349;53.720;10.014;2022-11-23T04:26:44;3.70;99.90
38582;DHT22;24349;53.720;10.014;2022-11-23T04:29:09;3.70;99.90
38582;DHT22;24349;53.720;10.014;2022-11-23T04:31:35;3.70;99.90
38582;DHT22;24349;53.720;10.014;2022-11-23T04:34:01;3.70;99.90
38582;DHT22;24349;53.720;10.014;2022-11-23T04:36:26;3.70;99.90
38582;DHT22;24349;53.720;10.014;2022-11-23T04:38:52;3.80;99.90
38582;DHT22;24349;53.720;10.014;2022-11-23T04:41:18;3.70;99.90
38582;DHT22;24349;53.720;10.014;2022-11-23T04:43:47;3.70;99.90
38582;DHT22;24349;53.720;10.014;2022-11-23T04:46:12;3.70;99.90
38582;DHT22;24349;53.720;10.014;2022-11-23T04:48:38;3.80;99.90
38582;DHT22;24349;53.720;10.014;2022-11-23T04:51:04;3.70;99.90
38582;DHT22;24349;53.720;10.014;2022-11-23T04:53:30;3.70;99.90
38582;DHT22;24349;53.720;10.014;2022-11-23T04:55:55;3.70;99.90
38582;DHT22;24349;53.720;10.014;2022-11-23T04:58:21;3.80;99.90
38582;DHT22;24349;53.720;10.014;2022-11-23T05:00:47;3.80;99.90
38582;DHT22;24349;53.720;10.014;2022-11-23T05:03:12;3.80;99.90
38582;DHT22;24349;53.720;10.014;2022-11-23T05:05:39;3.80;99.90
38582;DHT22;24349;53.720;10.014;2022-11-23T05:08:06;3.80;99.90
38582;DHT22;24349;53.720;10.014;2022-11-23T05:10:32;3.80;99.90
38582;DHT22;24349;53.720;10.014;2022-11-23T05:12:58;3.80;99.90
38582;DHT22;24349;53.720;10.014;2022-11-23T05:15:24;3.80;99.90
38582;DHT22;24349;53.720;10.014;2022-11-23T05:17:49;3.80;99.90
38582;DHT22;24349;53.720;10.014;2022-11-23T05:20:15;3.90;99.90
38582;DHT22;24349;53.720;10.014;2022-11-23T05:22:41;3.90;99.90
38582;DHT22;24349;53.720;10.014;2022-11-23T05:25:07;3.90;99.90
38582;DHT22;24349;53.720;10.014;2022-11-23T05:27:33;3.90;99.90
38582;DHT22;24349;53.720;10.014;2022-11-23T05:29:59;3.90;99.90
38582;DHT22;24349;53.720;10.014;2022-11-23T05:32:25;3.90;99.90
38582;DHT22;24349;53.720;10.014;2022-11-23T05:34:51;3.90;99.90
38582;DHT22;24349;53.720;10.014;2022-11-23T05:37:16;4.00;99.90
38582;DHT22;24349;53.720;10.014;2022-11-23T05:39:42;4.00;99.90
38582;DHT22;24349;53.720;10.014;2022-11-23T05:42:08;4.10;99.90
38582;DHT22;24349;53.720;10.014;2022-11-23T05:44:33;4.00;99.90
38582;DHT22;24349;53.720;10.014;2022-11-23T05:46:59;4.00;99.90
38582;DHT22;24349;53.720;10.014;2022-11-23T05:49:25;4.10;99.90
38582;DHT22;24349;53.720;10.014;2022-11-23T05:51:51;4.00;99.90
38582;DHT22;24349;53.720;10.014;2022-11-23T05:54:16;4.00;99.90
38582;DHT22;24349;53.720;10.014;2022-11-23T05:56:42;4.00;99.90
38582;DHT22;24349;53.720;10.014;2022-11-23T05:59:09;4.00;99.90
38582;DHT22;24349;53.720;10.014;2022-11-23T06:01:35;4.00;99.90
38582;DHT22;24349;53.720;10.014;2022-11-23T06:04:00;4.00;99.90
38582;DHT22;24349;53.720;10.014;2022-11-23T06:06:26;3.90;99.90
38582;DHT22;24349;53.720;10.014;2022-11-23T06:08:52;4.00;99.90
38582;DHT22;24349;53.720;10.014;2022-11-23T06:11:17;4.00;99.90
38582;DHT22;24349;53.720;10.014;2022-11-23T06:13:46;3.90;99.90
38582;DHT22;24349;53.720;10.014;2022-11-23T06:16:12;4.00;99.90
38582;DHT22;24349;53.720;10.014;2022-11-23T06:18:37;3.90;99.90
38582;DHT22;24349;53.720;10.014;2022-11-23T06:21:03;3.90;99.90
38582;DHT22;24349;53.720;10.014;2022-11-23T06:23:29;3.90;99.90
38582;DHT22;24349;53.720;10.014;2022-11-23T06:25:58;3.90;99.90
38582;DHT22;24349;53.720;10.014;2022-11-23T06:28:24;3.80;99.90
38582;DHT22;24349;53.720;10.014;2022-11-23T06:30:51;3.90;99.90
38582;DHT22;24349;53.720;10.014;2022-11-23T06:33:17;3.90;99.90
38582;DHT22;24349;53.720;10.014;2022-11-23T06:35:57;3.80;99.90
38582;DHT22;24349;53.720;10.014;2022-11-23T06:38:24;3.90;99.90
38582;DHT22;24349;53.720;10.014;2022-11-23T06:40:49;3.90;99.90
38582;DHT22;24349;53.720;10.014;2022-11-23T06:43:15;3.90;99.90
38582;DHT22;24349;53.720;10.014;2022-11-23T06:45:41;3.90;99.90
38582;DHT22;24349;53.720;10.014;2022-11-23T06:48:06;3.90;99.90
38582;DHT22;24349;53.720;10.014;2022-11-23T06:50:32;3.90;99.90
38582;DHT22;24349;53.720;10.014;2022-11-23T06:52:57;3.90;99.90
38582;DHT22;24349;53.720;10.014;2022-11-23T06:55:24;3.90;99.90
38582;DHT22;24349;53.720;10.014;2022-11-23T06:57:49;3.90;99.90
38582;DHT22;24349;53.720;10.014;2022-11-23T07:00:16;3.90;99.90
38582;DHT22;24349;53.720;10.014;2022-11-23T07:02:42;3.90;99.90
38582;DHT22;24349;53.720;10.014;2022-11-23T07:05:08;3.90;99.90
38582;DHT22;24349;53.720;10.014;2022-11-23T07:07:34;3.90;99.90
38582;DHT22;24349;53.720;10.014;2022-11-23T07:10:00;3.90;99.90
38582;DHT22;24349;53.720;10.014;2022-11-23T07:12:26;3.90;99.90
38582;DHT22;24349;53.720;10.014;2022-11-23T07:14:52;4.00;99.90
38582;DHT22;24349;53.720;10.014;2022-11-23T07:17:17;4.00;99.90
38582;DHT22;24349;53.720;10.014;2022-11-23T07:19:43;4.00;99.90
38582;DHT22;24349;53.720;10.014;2022-11-23T07:22:08;4.00;99.90
38582;DHT22;24349;53.720;10.014;2022-11-23T07:24:34;4.00;99.90
38582;DHT22;24349;53.720;10.014;2022-11-23T07:27:00;4.10;99.90
38582;DHT22;24349;53.720;10.014;2022-11-23T07:29:25;4.00;99.90
38582;DHT22;24349;53.720;10.014;2022-11-23T07:31:51;4.10;99.90
38582;DHT22;24349;53.720;10.014;2022-11-23T07:34:17;4.10;99.90
38582;DHT22;24349;53.720;10.014;2022-11-23T07:36:42;4.10;99.90
38582;DHT22;24349;53.720;10.014;2022-11-23T07:39:08;4.20;99.90
38582;DHT22;24349;53.720;10.014;2022-11-23T07:41:34;4.20;99.90
38582;DHT22;24349;53.720;10.014;2022-11-23T07:43:59;4.30;99.90
38582;DHT22;24349;53.720;10.014;2022-11-23T07:46:25;4.30;99.90
38582;DHT22;24349;53.720;10.014;2022-11-23T07:48:50;4.30;99.90
38582;DHT22;24349;53.720;10.014;2022-11-23T07:51:18;4.30;99.90
38582;DHT22;24349;53.720;10.014;2022-11-23T07:53:45;4.40;99.90
38582;DHT22;24349;53.720;10.014;2022-11-23T07:56:10;4.40;99.90
38582;DHT22;24349;53.720;10.014;2022-11-23T07:58:36;4.40;99.90
38582;DHT22;24349;53.720;10.014;2022-11-23T08:01:02;4.40;99.90
38582;DHT22;24349;53.720;10.014;2022-11-23T08:03:28;4.50;99.90
38582;DHT22;24349;53.720;10.014;2022-11-23T08:05:53;4.60;99.90
38582;DHT22;24349;53.720;10.014;2022-11-23T08:08:19;5.20;99.90
38582;DHT22;24349;53.720;10.014;2022-11-23T08:10:45;5.60;99.90
38582;DHT22;24349;53.720;10.014;2022-11-23T08:13:10;5.90;99.90
38582;DHT22;24349;53.720;10.014;2022-11-23T08:15:36;6.30;99.90
38582;DHT22;24349;53.720;10.014;2022-11-23T08:18:03;6.50;99.90
38582;DHT22;24349;53.720;10.014;2022-11-23T08:20:30;6.80;99.90
38582;DHT22;24349;53.720;10.014;2022-11-23T08:22:56;6.90;99.90
38582;DHT22;24349;53.720;10.014;2022-11-23T08:25:23;7.30;99.90
38582;DHT22;24349;53.720;10.014;2022-11-23T08:28:00;7.60;99.90
38582;DHT22;24349;53.720;10.014;2022-11-23T08:30:27;7.30;99.90
38582;DHT22;24349;53.720;10.014;2022-11-23T08:32:53;6.80;99.90
38582;DHT22;24349;53.720;10.014;2022-11-23T08:35:18;6.40;99.90
38582;DHT22;24349;53.720;10.014;2022-11-23T08:37:44;6.20;99.90
38582;DHT22;24349;53.720;10.014;2022-11-23T08:40:10;6.10;99.90
38582;DHT22;24349;53.720;10.014;2022-11-23T08:42:36;6.00;99.90
38582;DHT22;24349;53.720;10.014;2022-11-23T08:45:02;6.00;99.90
38582;DHT22;24349;53.720;10.014;2022-11-23T08:47:30;5.90;99.90
38582;DHT22;24349;53.720;10.014;2022-11-23T08:49:56;5.90;99.90
38582;DHT22;24349;53.720;10.014;2022-11-23T08:52:22;5.70;99.90
38582;DHT22;24349;53.720;10.014;2022-11-23T08:54:48;5.70;99.90
38582;DHT22;24349;53.720;10.014;2022-11-23T08:57:13;5.80;99.90
38582;DHT22;24349;53.720;10.014;2022-11-23T08:59:39;5.80;99.90
38582;DHT22;24349;53.720;10.014;2022-11-23T09:02:05;5.80;99.90
38582;DHT22;24349;53.720;10.014;2022-11-23T09:04:31;5.80;99.90
38582;DHT22;24349;53.720;10.014;2022-11-23T09:06:56;5.90;99.90
38582;DHT22;24349;53.720;10.014;2022-11-23T09:09:22;5.90;99.90
38582;DHT22;24349;53.720;10.014;2022-11-23T09:11:48;5.90;99.90
38582;DHT22;24349;53.720;10.014;2022-11-23T09:14:14;5.90;99.90
38582;DHT22;24349;53.720;10.014;2022-11-23T09:16:40;6.00;99.90
38582;DHT22;24349;53.720;10.014;2022-11-23T09:19:05;6.10;99.90
38582;DHT22;24349;53.720;10.014;2022-11-23T09:21:32;6.20;99.90
38582;DHT22;24349;53.720;10.014;2022-11-23T09:24:00;6.20;99.90
38582;DHT22;24349;53.720;10.014;2022-11-23T09:26:26;6.20;99.90
38582;DHT22;24349;53.720;10.014;2022-11-23T09:28:52;6.30;99.90
38582;DHT22;24349;53.720;10.014;2022-11-23T09:31:17;6.30;99.90
38582;DHT22;24349;53.720;10.014;2022-11-23T09:33:43;6.20;99.90
38582;DHT22;24349;53.720;10.014;2022-11-23T09:36:09;6.40;99.90
38582;DHT22;24349;53.720;10.014;2022-11-23T09:38:35;6.50;99.90
38582;DHT22;24349;53.720;10.014;2022-11-23T09:49:20;7.20;99.90
38582;DHT22;24349;53.720;10.014;2022-11-23T09:51:46;7.30;99.90
38582;DHT22;24349;53.720;10.014;2022-11-23T09:54:18;7.30;99.90
38582;DHT22;24349;53.720;10.014;2022-11-23T09:56:46;7.20;99.90
38582;DHT22;24349;53.720;10.014;2022-11-23T10:02:00;7.30;99.90
38582;DHT22;24349;53.720;10.014;2022-11-23T10:04:28;7.40;99.90
38582;DHT22;24349;53.720;10.014;2022-11-23T10:07:01;7.50;99.90
38582;DHT22;24349;53.720;10.014;2022-11-23T10:25:17;8.00;99.90
38582;DHT22;24349;53.720;10.014;2022-11-23T10:27:43;8.00;99.90
38582;DHT22;24349;53.720;10.014;2022-11-23T10:30:11;8.50;99.90
38582;DHT22;24349;53.720;10.014;2022-11-23T10:32:39;9.40;99.90
38582;DHT22;24349;53.720;10.014;2022-11-23T10:37:31;8.70;99.90
38582;DHT22;24349;53.720;10.014;2022-11-23T10:39:57;8.40;99.90
38582;DHT22;24349;53.720;10.014;2022-11-23T10:42:30;8.20;99.90
38582;DHT22;24349;53.720;10.014;2022-11-23T10:44:58;8.10;99.90
38582;DHT22;24349;53.720;10.014;2022-11-23T10:47:34;8.20;99.90
38582;DHT22;24349;53.720;10.014;2022-11-23T10:50:00;8.00;99.90
38582;DHT22;24349;53.720;10.014;2022-11-23T10:52:29;7.90;99.90
38582;DHT22;24349;53.720;10.014;2022-11-23T10:54:59;8.00;99.90
38582;DHT22;24349;53.720;10.014;2022-11-23T11:02:23;8.20;99.90
38582;DHT22;24349;53.720;10.014;2022-11-23T11:04:49;8.30;99.90
38582;DHT22;24349;53.720;10.014;2022-11-23T11:07:23;8.30;99.90
38582;DHT22;24349;53.720;10.014;2022-11-23T11:09:49;8.20;99.90
38582;DHT22;24349;53.720;10.014;2022-11-23T11:12:15;8.00;99.90
38582;DHT22;24349;53.720;10.014;2022-11-23T11:14:53;7.90;99.90
38582;DHT22;24349;53.720;10.014;2022-11-23T11:17:26;7.90;99.90
38582;DHT22;24349;53.720;10.014;2022-11-23T11:19:52;7.90;99.90
38582;DHT22;24349;53.720;10.014;2022-11-23T11:22:34;8.00;99.90
38582;DHT22;24349;53.720;10.014;2022-11-23T11:25:03;7.90;99.90
38582;DHT22;24349;53.720;10.014;2022-11-23T11:27:29;7.90;99.90
38582;DHT22;24349;53.720;10.014;2022-11-23T11:29:57;7.80;99.90
38582;DHT22;24349;53.720;10.014;2022-11-23T11:37:44;7.80;99.90
38582;DHT22;24349;53.720;10.014;2022-11-23T11:40:32;7.80;99.90
38582;DHT22;24349;53.720;10.014;2022-11-23T11:43:01;7.90;99.90
38582;DHT22;24349;53.720;10.014;2022-11-23T11:45:32;8.00;99.90
38582;DHT22;24349;53.720;10.014;2022-11-23T11:48:08;8.00;99.90
38582;DHT22;24349;53.720;10.014;2022-11-23T11:50:40;7.90;99.90
38582;DHT22;24349;53.720;10.014;2022-11-23T11:53:14;7.90;99.90
38582;DHT22;24349;53.720;10.014;2022-11-23T11:55:52;8.00;99.90
38582;DHT22;24349;53.720;10.014;2022-11-23T12:11:17;8.30;99.90
38582;DHT22;24349;53.720;10.014;2022-11-23T12:13:43;8.40;99.90
38582;DHT22;24349;53.720;10.014;2022-11-23T12:16:25;8.40;99.90
38582;DHT22;24349;53.720;10.014;2022-11-23T12:29:16;12.20;99.90
38582;DHT22;24349;53.720;10.014;2022-11-23T12:31:49;12.50;99.90
38582;DHT22;24349;53.720;10.014;2022-11-23T12:34:26;12.00;99.90
38582;DHT22;24349;53.720;10.014;2022-11-23T12:55:17;8.40;99.90
38582;DHT22;24349;53.720;10.014;2022-11-23T13:47:25;8.30;99.90
38582;DHT22;24349;53.720;10.014;2022-11-23T13:49:51;8.40;99.90
38582;DHT22;24349;53.720;10.014;2022-11-23T13:55:20;8.30;99.90
38582;DHT22;24349;53.720;10.014;2022-11-23T13:57:38;8.40;99.90
38582;DHT22;24349;53.720;10.014;2022-11-23T14:02:49;8.40;99.90
38582;DHT22;24349;53.720;10.014;2022-11-23T14:05:30;8.40;99.90
38582;DHT22;24349;53.720;10.014;2022-11-23T14:11:17;8.40;99.90
38582;DHT22;24349;53.720;10.014;2022-11-23T14:13:58;8.30;99.90
38582;DHT22;24349;53.720;10.014;2022-11-23T14:19:27;8.30;99.90
38582;DHT22;24349;53.720;10.014;2022-11-23T14:22:12;8.20;99.90
38582;DHT22;24349;53.720;10.014;2022-11-23T14:35:40;8.10;99.90
38582;DHT22;24349;53.720;10.014;2022-11-23T14:38:35;8.00;99.90
38582;DHT22;24349;53.720;10.014;2022-11-23T14:41:05;7.90;99.90
38582;DHT22;24349;53.720;10.014;2022-11-23T14:43:32;8.00;99.90
38582;DHT22;24349;53.720;10.014;2022-11-23T14:45:59;8.00;99.90
38582;DHT22;24349;53.720;10.014;2022-11-23T14:48:28;8.10;99.90
38582;DHT22;24349;53.720;10.014;2022-11-23T14:50:54;8.10;99.90
38582;DHT22;24349;53.720;10.014;2022-11-23T14:53:21;8.00;99.90
38582;DHT22;24349;53.720;10.014;2022-11-23T14:55:47;8.00;99.90
38582;DHT22;24349;53.720;10.014;2022-11-23T14:58:12;7.90;99.90
38582;DHT22;24349;53.720;10.014;2022-11-23T15:00:42;7.70;99.90
38582;DHT22;24349;53.720;10.014;2022-11-23T15:03:11;7.70;99.90
38582;DHT22;24349;53.720;10.014;2022-11-23T15:05:45;7.80;99.90
38582;DHT22;24349;53.720;10.014;2022-11-23T15:08:25;7.50;99.90
38582;DHT22;24349;53.720;10.014;2022-11-23T15:13:28;7.30;99.90
38582;DHT22;24349;53.720;10.014;2022-11-23T15:16:13;7.20;99.90
38582;DHT22;24349;53.720;10.014;2022-11-23T15:18:39;7.10;99.90
38582;DHT22;24349;53.720;10.014;2022-11-23T18:11:37;5.00;99.90
38582;DHT22;24349;53.720;10.014;2022-11-23T18:14:02;5.00;99.90
38582;DHT22;24349;53.720;10.014;2022-11-23T18:16:29;5.00;99.90
38582;DHT22;24349;53.720;10.014;2022-11-23T18:18:55;5.00;99.90
38582;DHT22;24349;53.720;10.014;2022-11-23T18:21:21;5.00;99.90
38582;DHT22;24349;53.720;10.014;2022-11-23T18:23:47;5.00;99.90
38582;DHT22;24349;53.720;10.014;2022-11-23T18:26:17;5.00;99.90
38582;DHT22;24349;53.720;10.014;2022-11-23T18:28:43;5.10;99.90
38582;DHT22;24349;53.720;10.014;2022-11-23T18:31:09;5.10;99.90
38582;DHT22;24349;53.720;10.014;2022-11-23T18:33:35;5.00;99.90
38582;DHT22;24349;53.720;10.014;2022-11-23T18:36:00;5.00;99.90
38582;DHT22;24349;53.720;10.014;2022-11-23T18:38:26;5.00;99.90
38582;DHT22;24349;53.720;10.014;2022-11-23T18:40:51;4.90;99.90
38582;DHT22;24349;53.720;10.014;2022-11-23T18:43:19;4.90;99.90
38582;DHT22;24349;53.720;10.014;2022-11-23T18:45:45;5.00;99.90
38582;DHT22;24349;53.720;10.014;2022-11-23T18:48:10;5.00;99.90
38582;DHT22;24349;53.720;10.014;2022-11-23T18:50:37;5.10;99.90
38582;DHT22;24349;53.720;10.014;2022-11-23T18:53:03;5.00;99.90
38582;DHT22;24349;53.720;10.014;2022-11-23T18:55:28;5.00;99.90
38582;DHT22;24349;53.720;10.014;2022-11-23T18:57:54;4.90;99.90
38582;DHT22;24349;53.720;10.014;2022-11-23T19:00:23;4.90;99.90
38582;DHT22;24349;53.720;10.014;2022-11-23T19:02:50;4.80;99.90
38582;DHT22;24349;53.720;10.014;2022-11-23T19:13:26;4.80;99.90
38582;DHT22;24349;53.720;10.014;2022-11-23T19:15:52;4.80;99.90
38582;DHT22;24349;53.720;10.014;2022-11-23T19:18:17;4.80;99.90
38582;DHT22;24349;53.720;10.014;2022-11-23T19:20:43;4.80;99.90
38582;DHT22;24349;53.720;10.014;2022-11-23T19:23:08;4.80;99.90
38582;DHT22;24349;53.720;10.014;2022-11-23T19:25:34;4.80;99.90
38582;DHT22;24349;53.720;10.014;2022-11-23T19:27:59;4.80;99.90
38582;DHT22;24349;53.720;10.014;2022-11-23T19:30:25;4.90;99.90
38582;DHT22;24349;53.720;10.014;2022-11-23T19:32:50;4.90;99.90
38582;DHT22;24349;53.720;10.014;2022-11-23T19:35:16;4.90;99.90
38582;DHT22;24349;53.720;10.014;2022-11-23T19:37:41;5.00;99.90
38582;DHT22;24349;53.720;10.014;2022-11-23T19:40:07;4.90;99.90
38582;DHT22;24349;53.720;10.014;2022-11-23T19:42:33;4.90;99.90
38582;DHT22;24349;53.720;10.014;2022-11-23T19:44:59;4.90;99.90
38582;DHT22;24349;53.720;10.014;2022-11-23T19:47:25;4.80;99.90
38582;DHT22;24349;53.720;10.014;2022-11-23T19:49:53;4.70;99.90
38582;DHT22;24349;53.720;10.014;2022-11-23T19:52:19;4.70;99.90
38582;DHT22;24349;53.720;10.014;2022-11-23T19:54:44;4.70;99.90
38582;DHT22;24349;53.720;10.014;2022-11-23T19:57:10;4.60;99.90
38582;DHT22;24349;53.720;10.014;2022-11-23T19:59:35;4.70;99.90
38582;DHT22;24349;53.720;10.014;2022-11-23T20:02:01;4.70;99.90
38582;DHT22;24349;53.720;10.014;2022-11-23T20:04:26;4.70;99.90
38582;DHT22;24349;53.720;10.014;2022-11-23T20:06:52;4.60;99.90
38582;DHT22;24349;53.720;10.014;2022-11-23T20:09:17;4.60;99.90
38582;DHT22;24349;53.720;10.014;2022-11-23T20:11:47;4.50;99.90
38582;DHT22;24349;53.720;10.014;2022-11-23T20:14:13;4.50;99.90
38582;DHT22;24349;53.720;10.014;2022-11-23T20:16:39;4.40;99.90
38582;DHT22;24349;53.720;10.014;2022-11-23T20:19:05;4.40;99.90
38582;DHT22;24349;53.720;10.014;2022-11-23T20:21:31;4.40;99.90
38582;DHT22;24349;53.720;10.014;2022-11-23T20:23:58;4.40;99.90
38582;DHT22;24349;53.720;10.014;2022-11-23T20:26:24;4.40;99.90
38582;DHT22;24349;53.720;10.014;2022-11-23T20:28:50;4.30;99.90
38582;DHT22;24349;53.720;10.014;2022-11-23T20:31:17;4.30;99.90
38582;DHT22;24349;53.720;10.014;2022-11-23T20:33:43;4.30;99.90
38582;DHT22;24349;53.720;10.014;2022-11-23T20:36:11;4.30;99.90
38582;DHT22;24349;53.720;10.014;2022-11-23T20:38:38;4.30;99.90
38582;DHT22;24349;53.720;10.014;2022-11-23T20:41:13;4.30;99.90
38582;DHT22;24349;53.720;10.014;2022-11-23T20:43:39;4.30;99.90
38582;DHT22;24349;53.720;10.014;2022-11-23T20:46:05;4.20;99.90
38582;DHT22;24349;53.720;10.014;2022-11-23T20:48:30;4.30;99.90
38582;DHT22;24349;53.720;10.014;2022-11-23T20:50:56;4.30;99.90
38582;DHT22;24349;53.720;10.014;2022-11-23T20:53:21;4.20;99.90
38582;DHT22;24349;53.720;10.014;2022-11-23T20:55:47;4.20;99.90
38582;DHT22;24349;53.720;10.014;2022-11-23T20:58:14;4.20;99.90
38582;DHT22;24349;53.720;10.014;2022-11-23T21:00:40;4.20;99.90
38582;DHT22;24349;53.720;10.014;2022-11-23T21:03:06;4.20;99.90
38582;DHT22;24349;53.720;10.014;2022-11-23T21:05:33;4.20;99.90
38582;DHT22;24349;53.720;10.014;2022-11-23T21:07:59;4.20;99.90
38582;DHT22;24349;53.720;10.014;2022-11-23T21:10:25;4.20;99.90
38582;DHT22;24349;53.720;10.014;2022-11-23T21:13:12;4.20;99.90
38582;DHT22;24349;53.720;10.014;2022-11-23T21:16:02;4.30;99.90
38582;DHT22;24349;53.720;10.014;2022-11-23T21:18:27;4.30;99.90
38582;DHT22;24349;53.720;10.014;2022-11-23T21:20:53;4.30;99.90
38582;DHT22;24349;53.720;10.014;2022-11-23T21:23:18;4.40;99.90
38582;DHT22;24349;53.720;10.014;2022-11-23T21:25:44;4.50;99.90
38582;DHT22;24349;53.720;10.014;2022-11-23T21:28:09;4.50;99.90
38582;DHT22;24349;53.720;10.014;2022-11-23T21:30:35;4.50;99.90
38582;DHT22;24349;53.720;10.014;2022-11-23T21:33:00;4.60;99.90
38582;DHT22;24349;53.720;10.014;2022-11-23T21:35:26;4.70;99.90
38582;DHT22;24349;53.720;10.014;2022-11-23T21:37:51;4.70;99.90
38582;DHT22;24349;53.720;10.014;2022-11-23T21:40:17;4.70;99.90
38582;DHT22;24349;53.720;10.014;2022-11-23T21:42:42;4.70;99.90
38582;DHT22;24349;53.720;10.014;2022-11-23T21:45:09;4.80;99.90
38582;DHT22;24349;53.720;10.014;2022-11-23T21:47:34;4.90;99.90
38582;DHT22;24349;53.720;10.014;2022-11-23T21:50:00;4.90;99.90
38582;DHT22;24349;53.720;10.014;2022-11-23T21:52:25;4.90;99.90
38582;DHT22;24349;53.720;10.014;2022-11-23T21:54:51;4.80;99.90
38582;DHT22;24349;53.720;10.014;2022-11-23T21:57:16;4.80;99.90
38582;DHT22;24349;53.720;10.014;2022-11-23T21:59:42;4.90;99.90
38582;DHT22;24349;53.720;10.014;2022-11-23T22:02:08;4.90;99.90
38582;DHT22;24349;53.720;10.014;2022-11-23T22:04:36;5.00;99.90
38582;DHT22;24349;53.720;10.014;2022-11-23T22:07:01;5.00;99.90
38582;DHT22;24349;53.720;10.014;2022-11-23T22:09:27;5.00;99.90
38582;DHT22;24349;53.720;10.014;2022-11-23T22:11:55;5.10;99.90
38582;DHT22;24349;53.720;10.014;2022-11-23T22:14:20;5.20;99.90
38582;DHT22;24349;53.720;10.014;2022-11-23T22:16:47;5.20;99.90
38582;DHT22;24349;53.720;10.014;2022-11-23T22:19:18;5.20;99.90
38582;DHT22;24349;53.720;10.014;2022-11-23T22:21:44;5.20;99.90
38582;DHT22;24349;53.720;10.014;2022-11-23T22:24:10;5.30;99.90
38582;DHT22;24349;53.720;10.014;2022-11-23T22:26:37;5.30;99.90
38582;DHT22;24349;53.720;10.014;2022-11-23T22:29:03;5.30;99.90
38582;DHT22;24349;53.720;10.014;2022-11-23T22:31:31;5.30;99.90
38582;DHT22;24349;53.720;10.014;2022-11-23T22:33:58;5.40;99.90
38582;DHT22;24349;53.720;10.014;2022-11-23T22:36:24;5.40;99.90
38582;DHT22;24349;53.720;10.014;2022-11-23T22:38:53;5.40;99.90
38582;DHT22;24349;53.720;10.014;2022-11-23T22:41:19;5.40;99.90
38582;DHT22;24349;53.720;10.014;2022-11-23T22:43:44;5.40;99.90
38582;DHT22;24349;53.720;10.014;2022-11-23T22:46:11;5.40;99.90
38582;DHT22;24349;53.720;10.014;2022-11-23T22:48:40;5.50;99.90
38582;DHT22;24349;53.720;10.014;2022-11-23T22:51:06;5.50;99.90
38582;DHT22;24349;53.720;10.014;2022-11-23T22:53:32;5.50;99.90
38582;DHT22;24349;53.720;10.014;2022-11-23T22:55:58;5.50;99.90
38582;DHT22;24349;53.720;10.014;2022-11-23T22:58:24;5.50;99.90
38582;DHT22;24349;53.720;10.014;2022-11-23T23:00:49;5.50;99.90